createdAt,value
2022-11-26T00:01:17.730Z,241.93
2022-11-26T00:03:46.787Z,306.27
2022-11-26T00:06:26.500Z,258.30
2022-11-26T00:08:54.995Z,251.57
2022-11-26T00:11:23.563Z,274.30
2022-11-26T00:13:52.024Z,272.08
2022-11-26T00:16:22.006Z,263.52
2022-11-26T00:18:50.509Z,302.05
2022-11-26T00:21:21.904Z,288.67
2022-11-26T00:23:50.694Z,267.30
2022-11-26T00:26:22.588Z,258.40
2022-11-26T00:28:54.619Z,341.33
2022-11-26T00:31:25.294Z,290.60
2022-11-26T00:33:53.736Z,298.73
2022-11-26T00:36:25.497Z,241.27
2022-11-26T00:38:56.249Z,260.27
2022-11-26T00:41:27.115Z,292.10
2022-11-26T00:43:55.540Z,219.40
2022-11-26T00:46:26.674Z,266.80
2022-11-26T00:48:55.228Z,287.10
2022-11-26T00:51:26.261Z,219.52
2022-11-26T00:53:55.874Z,274.55
2022-11-26T00:56:24.774Z,235.75
2022-11-26T00:58:53.385Z,233.68
2022-11-26T01:01:24.003Z,237.27
2022-11-26T01:03:54.063Z,238.50
2022-11-26T01:06:24.011Z,229.82
2022-11-26T01:08:52.531Z,240.18
2022-11-26T01:11:24.460Z,223.43
2022-11-26T01:13:56.059Z,325.63
2022-11-26T01:16:26.343Z,262.88
2022-11-26T01:18:57.594Z,268.70
2022-11-26T01:21:27.969Z,277.88
2022-11-26T01:23:56.983Z,277.45
2022-11-26T01:26:27.480Z,271.23
2022-11-26T01:28:56.122Z,228.85
2022-11-26T01:31:26.488Z,244.68
2022-11-26T01:33:56.603Z,250.70
2022-11-26T01:36:30.659Z,253.65
2022-11-26T01:39:00.923Z,239.20
2022-11-26T01:41:42.582Z,237.77
2022-11-26T01:44:18.470Z,228.50
2022-11-26T01:46:47.209Z,257.33
2022-11-26T01:49:21.917Z,276.42
2022-11-26T01:54:19.402Z,229.32
2022-11-26T01:56:49.745Z,253.45
2022-11-26T01:59:21.599Z,236.98
2022-11-26T02:01:50.897Z,294.13
2022-11-26T02:04:23.265Z,290.83
2022-11-26T02:06:54.183Z,257.60
2022-11-26T02:09:22.885Z,239.27
2022-11-26T02:11:51.575Z,271.08
2022-11-26T02:14:22.513Z,289.08
2022-11-26T02:17:01.532Z,282.83
2022-11-26T02:19:54.981Z,292.60
2022-11-26T02:22:38.373Z,254.38
2022-11-26T02:25:13.101Z,264.75
2022-11-26T02:30:30.516Z,220.07
2022-11-26T02:33:01.868Z,240.63
2022-11-26T02:35:35.718Z,251.57
2022-11-26T02:38:07.618Z,253.48
2022-11-26T02:40:36.239Z,231.98
2022-11-26T02:43:04.779Z,282.85
2022-11-26T02:45:36.447Z,248.25
2022-11-26T02:48:06.823Z,256.25
2022-11-26T02:50:39.352Z,235.18
2022-11-26T02:53:09.294Z,251.75
2022-11-26T02:55:40.877Z,255.15
2022-11-26T02:58:09.500Z,255.57
2022-11-26T03:00:42.282Z,238.05
2022-11-26T03:03:17.062Z,275.00
2022-11-26T03:08:13.860Z,253.45
2022-11-26T03:10:42.318Z,280.63
2022-11-26T03:13:10.787Z,271.35
2022-11-26T03:15:40.555Z,245.40
2022-11-26T03:18:09.064Z,291.50
2022-11-26T03:20:37.530Z,245.80
2022-11-26T03:23:06.107Z,285.17
2022-11-26T03:25:34.834Z,246.02
2022-11-26T03:28:03.536Z,296.75
2022-11-26T03:30:32.132Z,279.33
2022-11-26T03:33:01.995Z,279.02
2022-11-26T03:35:30.487Z,277.08
2022-11-26T03:37:58.913Z,249.93
2022-11-26T03:40:27.379Z,264.17
2022-11-26T03:42:55.881Z,238.60
2022-11-26T03:45:24.344Z,272.15
2022-11-26T03:47:52.882Z,288.30
2022-11-26T03:50:22.730Z,255.00
2022-11-26T03:52:51.386Z,216.82
2022-11-26T03:55:19.949Z,226.57
2022-11-26T03:57:48.364Z,254.43
2022-11-26T04:00:17.689Z,257.48
2022-11-26T04:02:46.273Z,247.30
2022-11-26T04:05:14.760Z,262.73
2022-11-26T04:07:44.550Z,251.05
2022-11-26T04:10:13.031Z,256.85
2022-11-26T04:12:41.391Z,266.83
2022-11-26T04:15:10.912Z,225.35
2022-11-26T04:17:39.287Z,254.10
2022-11-26T04:20:09.097Z,278.85
2022-11-26T04:22:37.545Z,254.00
2022-11-26T04:25:07.861Z,240.90
2022-11-26T04:27:36.315Z,258.27
2022-11-26T04:30:05.154Z,275.50
2022-11-26T04:32:33.630Z,249.55
2022-11-26T04:35:02.049Z,235.10
2022-11-26T04:37:30.482Z,247.40
2022-11-26T04:39:58.823Z,246.85
2022-11-26T04:42:28.603Z,259.05
2022-11-26T04:44:57.194Z,255.10
2022-11-26T04:47:25.629Z,247.75
2022-11-26T04:49:54.044Z,240.10
2022-11-26T04:52:22.577Z,245.50
2022-11-26T04:54:51.046Z,220.15
2022-11-26T04:57:19.552Z,218.93
2022-11-26T04:59:49.237Z,246.57
2022-11-26T05:02:17.667Z,248.73
2022-11-26T05:04:46.299Z,270.55
2022-11-26T05:07:14.758Z,233.45
2022-11-26T05:09:43.431Z,250.90
2022-11-26T05:12:12.726Z,247.57
2022-11-26T05:14:41.179Z,244.18
2022-11-26T05:17:10.954Z,217.13
2022-11-26T05:19:39.397Z,248.05
2022-11-26T05:22:07.803Z,208.32
2022-11-26T05:24:36.828Z,198.25
2022-11-26T05:27:05.496Z,235.32
2022-11-26T05:29:33.863Z,230.18
2022-11-26T05:32:03.000Z,248.30
2022-11-26T05:34:32.866Z,246.30
2022-11-26T05:37:01.267Z,241.10
2022-11-26T05:39:29.871Z,239.38
2022-11-26T05:41:58.292Z,218.43
2022-11-26T05:44:26.819Z,230.10
2022-11-26T05:46:55.280Z,217.63
2022-11-26T05:49:23.766Z,248.98
2022-11-26T05:51:53.463Z,229.05
2022-11-26T05:54:21.891Z,254.98
2022-11-26T05:56:53.128Z,260.35
2022-11-26T05:59:25.436Z,225.63
2022-11-26T06:01:53.939Z,227.05
2022-11-26T06:04:22.396Z,235.68
2022-11-26T06:06:52.226Z,228.40
2022-11-26T06:09:20.758Z,211.70
2022-11-26T06:11:50.587Z,241.93
2022-11-26T06:14:19.198Z,232.77
2022-11-26T06:16:47.646Z,206.90
2022-11-26T06:19:16.213Z,242.95
2022-11-26T06:21:45.116Z,236.10
2022-11-26T06:24:14.867Z,200.65
2022-11-26T06:26:43.339Z,165.70
2022-11-26T06:29:11.793Z,224.05
2022-11-26T06:31:40.307Z,173.60
2022-11-26T06:34:08.751Z,199.27
2022-11-26T06:36:37.236Z,211.40
2022-11-26T06:39:05.725Z,169.52
2022-11-26T06:41:35.525Z,182.88
2022-11-26T06:44:04.698Z,195.45
2022-11-26T06:46:34.565Z,241.95
2022-11-26T06:49:04.215Z,233.38
2022-11-26T06:51:33.142Z,227.98
2022-11-26T06:54:01.669Z,242.00
2022-11-26T06:56:30.184Z,229.35
2022-11-26T06:59:00.386Z,208.00
2022-11-26T07:01:29.211Z,214.75
2022-11-26T07:03:58.099Z,231.80
2022-11-26T07:06:28.829Z,216.57
2022-11-26T07:08:59.332Z,264.45
2022-11-26T07:11:40.642Z,199.02
2022-11-26T07:14:11.169Z,237.10
2022-11-26T07:16:40.021Z,237.35
2022-11-26T07:19:08.581Z,232.73
2022-11-26T07:21:37.076Z,234.55
2022-11-26T07:24:06.202Z,239.85
2022-11-26T07:26:34.653Z,249.32
2022-11-26T07:29:03.202Z,224.63
2022-11-26T07:31:33.233Z,227.93
2022-11-26T07:34:01.682Z,230.38
2022-11-26T07:36:31.897Z,279.33
2022-11-26T07:39:02.336Z,274.77
2022-11-26T07:41:31.722Z,231.98
2022-11-26T07:44:00.121Z,260.23
2022-11-26T07:46:29.163Z,260.73
2022-11-26T07:48:59.181Z,245.27
2022-11-26T07:51:29.461Z,373.85
2022-11-26T07:53:59.340Z,251.80
2022-11-26T07:56:28.214Z,228.70
2022-11-26T07:58:56.687Z,260.73
2022-11-26T08:01:29.705Z,254.77
2022-11-26T08:04:03.375Z,264.52
2022-11-26T08:06:36.100Z,277.05
2022-11-26T08:09:10.409Z,270.50
2022-11-26T08:11:42.391Z,402.73
2022-11-26T08:14:22.016Z,309.63
2022-11-26T08:20:53.106Z,329.67
2022-11-26T08:24:43.377Z,304.35
2022-11-26T08:31:58.202Z,219.10
2022-11-26T08:35:44.393Z,341.73
2022-11-26T08:38:36.361Z,465.58
2022-11-26T08:47:44.841Z,390.05
2022-11-26T08:54:44.786Z,379.17
2022-11-26T08:57:42.116Z,413.20
2022-11-26T09:00:30.055Z,392.63
2022-11-26T09:02:58.697Z,436.05
2022-11-26T09:05:27.642Z,321.88
2022-11-26T09:19:09.274Z,332.70
2022-11-26T09:21:38.190Z,355.23
2022-11-26T09:24:07.443Z,325.52
2022-11-26T09:26:36.453Z,372.38
2022-11-26T09:29:05.299Z,313.55
2022-11-26T09:31:34.261Z,374.52
2022-11-26T09:34:03.986Z,332.08
2022-11-26T09:36:33.814Z,301.63
2022-11-26T09:39:02.909Z,353.63
2022-11-26T09:41:44.574Z,448.23
2022-11-26T09:44:30.089Z,341.80
2022-11-26T09:47:12.854Z,298.42
2022-11-26T09:49:49.859Z,463.83
2022-11-26T09:52:21.240Z,354.85
2022-11-26T09:54:50.758Z,343.17
2022-11-26T09:57:23.163Z,478.85
2022-11-26T09:59:52.490Z,351.45
2022-11-26T10:02:21.033Z,325.88
2022-11-26T10:04:50.168Z,421.98
2022-11-26T10:07:36.923Z,391.30
2022-11-26T10:10:12.191Z,354.65
2022-11-26T10:13:17.315Z,324.60
2022-11-26T10:15:43.929Z,325.88
2022-11-26T10:18:20.423Z,380.15
2022-11-26T10:20:59.065Z,344.73
2022-11-26T10:23:33.023Z,360.92
2022-11-26T10:26:07.815Z,300.67
2022-11-26T10:28:41.295Z,294.60
2022-11-26T10:31:16.866Z,315.42
2022-11-26T10:33:50.826Z,332.90
2022-11-26T10:36:24.378Z,281.88
2022-11-26T10:38:56.247Z,366.48
2022-11-26T10:41:26.887Z,335.80
2022-11-26T10:43:55.390Z,434.65
2022-11-26T10:46:37.530Z,434.13
2022-11-26T10:49:17.986Z,283.48
2022-11-26T10:51:49.331Z,310.25
2022-11-26T10:54:31.229Z,301.95
2022-11-26T10:57:05.237Z,246.63
2022-11-26T10:59:40.674Z,306.05
2022-11-26T11:02:28.891Z,245.95
2022-11-26T11:04:58.502Z,412.38
2022-11-26T11:07:35.411Z,254.02
2022-11-26T11:10:06.831Z,276.45
2022-11-26T11:12:35.306Z,304.73
2022-11-26T11:15:22.569Z,286.98
2022-11-26T11:17:58.045Z,420.35
2022-11-26T11:20:34.875Z,337.65
2022-11-26T11:23:06.017Z,291.08
2022-11-26T11:25:36.933Z,402.77
2022-11-26T11:28:12.208Z,299.60
2022-11-26T11:30:42.327Z,320.13
2022-11-26T11:33:21.016Z,353.00
2022-11-26T11:36:04.233Z,428.15
2022-11-26T11:38:34.247Z,415.48
2022-11-26T11:41:06.936Z,434.10
2022-11-26T11:43:37.834Z,323.23
2022-11-26T11:46:15.539Z,325.75
2022-11-26T11:48:50.932Z,344.02
2022-11-26T11:51:25.863Z,342.67
2022-11-26T11:54:02.410Z,341.05
2022-11-26T11:56:35.703Z,338.80
2022-11-26T11:59:17.069Z,334.92
2022-11-26T12:02:00.731Z,302.60
2022-11-26T12:04:54.835Z,276.02
2022-11-26T12:07:33.275Z,335.38
2022-11-26T12:10:23.108Z,294.30
2022-11-26T12:12:58.018Z,314.02
2022-11-26T12:15:29.940Z,426.45
2022-11-26T12:18:01.929Z,341.30
2022-11-26T12:20:35.262Z,337.23
2022-11-26T12:23:23.065Z,341.92
2022-11-26T12:25:56.293Z,240.40
2022-11-26T12:28:29.134Z,238.23
2022-11-26T12:31:14.501Z,261.30
2022-11-26T12:34:52.050Z,254.95
2022-11-26T12:37:26.693Z,246.65
2022-11-26T12:39:59.224Z,213.00
2022-11-26T12:42:29.576Z,328.27
2022-11-26T12:45:07.319Z,191.57
2022-11-26T12:47:39.498Z,342.92
2022-11-26T12:50:16.147Z,343.15
2022-11-26T12:52:49.648Z,257.92
2022-11-26T12:55:21.634Z,339.65
2022-11-26T12:57:52.442Z,405.90
2022-11-26T13:00:26.147Z,281.00
2022-11-26T13:02:56.182Z,267.50
2022-11-26T13:05:31.055Z,216.45
2022-11-26T13:08:19.306Z,287.95
2022-11-26T13:11:10.429Z,185.93
2022-11-26T13:13:45.095Z,235.32
2022-11-26T13:16:21.267Z,362.98
2022-11-26T13:18:55.450Z,258.35
2022-11-26T13:21:33.028Z,334.00
2022-11-26T13:24:28.892Z,239.57
2022-11-26T13:27:17.880Z,217.35
2022-11-26T13:30:01.044Z,215.90
2022-11-26T13:32:49.801Z,341.17
2022-11-26T13:35:24.170Z,336.38
2022-11-26T13:38:04.629Z,278.80
2022-11-26T13:40:58.589Z,498.63
2022-11-26T13:43:54.165Z,200.93
2022-11-26T13:46:23.928Z,216.82
2022-11-26T13:48:59.914Z,248.10
2022-11-26T13:51:33.572Z,281.23
2022-11-26T13:54:08.049Z,380.95
2022-11-26T13:56:37.164Z,397.77
2022-11-26T13:59:13.292Z,215.30
2022-11-26T14:01:42.370Z,381.67
2022-11-26T14:04:13.424Z,258.15
2022-11-26T14:07:19.455Z,334.40
2022-11-26T14:09:50.369Z,309.23
2022-11-26T14:12:20.281Z,264.60
2022-11-26T14:14:49.055Z,285.95
2022-11-26T14:17:25.258Z,270.20
2022-11-26T14:20:06.899Z,343.30
2022-11-26T14:22:36.411Z,234.57
2022-11-26T14:25:07.205Z,299.75
2022-11-26T14:27:37.427Z,198.27
2022-11-26T14:30:19.879Z,306.52
2022-11-26T14:33:10.109Z,201.10
2022-11-26T14:35:41.017Z,194.80
2022-11-26T14:38:24.389Z,329.23
2022-11-26T14:40:59.287Z,220.93
2022-11-26T14:43:27.847Z,304.05
2022-11-26T14:46:10.225Z,264.40
2022-11-26T14:48:43.671Z,337.45
2022-11-26T14:51:13.391Z,316.52
2022-11-26T14:53:45.586Z,278.23
2022-11-26T14:56:14.012Z,304.83
2022-11-26T14:58:45.684Z,260.02
2022-11-26T15:01:21.277Z,249.95
2022-11-26T15:03:59.051Z,404.27
2022-11-26T15:06:34.737Z,279.73
2022-11-26T15:09:08.098Z,338.08
2022-11-26T15:11:38.126Z,273.55
2022-11-26T15:14:06.538Z,332.80
2022-11-26T15:16:37.933Z,313.02
2022-11-26T15:19:07.050Z,471.85
2022-11-26T15:21:37.522Z,407.70
2022-11-26T15:24:10.014Z,385.33
2022-11-26T15:26:40.157Z,333.80
2022-11-26T15:29:31.636Z,416.48
2022-11-26T15:32:00.351Z,348.38
2022-11-26T15:34:29.355Z,372.45
2022-11-26T15:36:59.222Z,329.20
2022-11-26T15:39:29.765Z,342.55
2022-11-26T15:42:04.323Z,389.25
2022-11-26T15:44:37.753Z,352.42
2022-11-26T15:47:13.779Z,376.90
2022-11-26T15:49:42.538Z,402.55
2022-11-26T15:52:13.966Z,385.50
2022-11-26T15:55:10.728Z,345.65
2022-11-26T15:57:34.551Z,269.38
2022-11-26T16:00:05.769Z,307.42
2022-11-26T16:02:34.337Z,335.15
2022-11-26T16:05:03.806Z,472.10
2022-11-26T16:07:34.727Z,386.33
2022-11-26T16:10:22.010Z,381.55
2022-11-26T16:13:14.814Z,344.65
2022-11-26T16:15:52.103Z,315.02
2022-11-26T16:18:23.555Z,326.05
2022-11-26T16:20:52.142Z,357.17
2022-11-26T16:23:29.310Z,369.02
2022-11-26T16:26:17.450Z,446.30
2022-11-26T16:28:47.068Z,323.10
2022-11-26T16:31:16.158Z,378.38
2022-11-26T16:33:45.319Z,371.50
2022-11-26T16:36:19.920Z,320.60
2022-11-26T16:38:50.169Z,416.10
2022-11-26T16:41:20.182Z,376.10
2022-11-26T16:43:48.917Z,328.45
2022-11-26T16:46:18.629Z,287.77
2022-11-26T16:48:48.318Z,336.77
2022-11-26T16:51:16.671Z,352.73
2022-11-26T16:53:45.506Z,323.50
2022-11-26T16:56:21.451Z,460.27
2022-11-26T16:58:51.009Z,325.42
2022-11-26T17:01:19.535Z,274.42
2022-11-26T17:03:55.321Z,323.20
2022-11-26T17:06:27.065Z,411.17
2022-11-26T17:08:56.848Z,403.23
2022-11-26T17:11:26.866Z,380.27
2022-11-26T17:13:55.628Z,409.50
2022-11-26T17:16:26.803Z,352.42
2022-11-26T17:19:05.630Z,303.58
2022-11-26T17:21:34.019Z,354.65
2022-11-26T17:24:02.378Z,340.52
2022-11-26T17:26:32.472Z,344.38
2022-11-26T17:29:02.251Z,407.52
2022-11-26T17:31:31.017Z,406.27
2022-11-26T17:33:59.521Z,395.15
2022-11-26T17:36:30.655Z,503.70
2022-11-26T17:39:01.377Z,518.03
2022-11-26T17:44:49.360Z,400.75
2022-11-26T17:47:19.438Z,419.20
2022-11-26T17:49:48.639Z,445.60
2022-11-26T17:52:17.510Z,416.98
2022-11-26T17:54:46.547Z,391.58
2022-11-26T17:57:16.229Z,420.45
2022-11-26T17:59:48.837Z,396.85
2022-11-26T18:02:28.612Z,348.50
2022-11-26T18:05:05.018Z,345.33
2022-11-26T18:07:33.503Z,413.92
2022-11-26T18:10:02.425Z,387.02
2022-11-26T18:12:50.720Z,416.02
2022-11-26T18:15:22.904Z,412.67
2022-11-26T18:17:52.992Z,357.33
2022-11-26T18:20:30.061Z,363.20
2022-11-26T18:23:00.612Z,354.85
2022-11-26T18:25:33.955Z,381.75
2022-11-26T18:28:03.119Z,407.75
2022-11-26T18:30:35.521Z,414.55
2022-11-26T18:33:06.770Z,459.80
2022-11-26T18:35:35.281Z,422.27
2022-11-26T18:38:05.705Z,415.05
2022-11-26T18:40:34.153Z,451.85
2022-11-26T18:43:02.676Z,438.58
2022-11-26T18:45:34.841Z,428.40
2022-11-26T18:48:03.167Z,428.65
2022-11-26T18:50:31.639Z,436.98
2022-11-26T18:53:00.125Z,462.63
2022-11-26T18:55:28.685Z,434.65
2022-11-26T18:57:57.246Z,517.50
2022-11-26T19:00:28.850Z,462.65
2022-11-26T19:03:03.776Z,454.48
2022-11-26T19:05:32.384Z,435.10
2022-11-26T19:08:01.092Z,468.65
2022-11-26T19:10:29.654Z,455.90
2022-11-26T19:12:58.252Z,449.98
2022-11-26T19:15:28.994Z,429.88
2022-11-26T19:18:07.193Z,444.25
2022-11-26T19:20:36.219Z,492.33
2022-11-26T19:23:09.278Z,429.23
2022-11-26T19:25:37.956Z,443.92
2022-11-26T19:28:06.690Z,458.40
2022-11-26T19:30:59.714Z,430.75
2022-11-26T19:34:03.625Z,445.27
2022-11-26T19:36:32.501Z,420.60
2022-11-26T19:39:13.372Z,419.20
2022-11-26T19:41:41.831Z,419.83
2022-11-26T19:44:10.361Z,457.65
2022-11-26T19:46:41.299Z,419.48
2022-11-26T19:49:13.223Z,429.83
2022-11-26T19:51:42.147Z,429.50
2022-11-26T19:54:11.382Z,556.65
2022-11-26T19:56:40.169Z,431.48
2022-11-26T19:59:08.973Z,466.05
2022-11-26T20:01:37.480Z,462.15
2022-11-26T20:04:07.278Z,460.58
2022-11-26T20:06:38.149Z,417.38
2022-11-26T20:09:08.133Z,442.13
2022-11-26T20:11:38.541Z,410.58
2022-11-26T20:14:09.471Z,413.05
2022-11-26T20:16:39.251Z,424.02
2022-11-26T20:19:07.710Z,437.77
2022-11-26T20:21:37.727Z,398.67
2022-11-26T20:24:09.373Z,381.30
2022-11-26T20:26:39.259Z,421.67
2022-11-26T20:29:09.696Z,430.75
2022-11-26T20:31:41.776Z,413.80
2022-11-26T20:34:10.544Z,424.90
2022-11-26T20:36:43.206Z,466.25
2022-11-26T20:39:16.094Z,425.95
2022-11-26T20:41:44.630Z,440.60
2022-11-26T20:44:13.824Z,441.33
2022-11-26T20:46:42.874Z,418.77
2022-11-26T20:49:11.993Z,430.17
2022-11-26T20:51:41.674Z,423.15
2022-11-26T20:54:10.492Z,441.40
2022-11-26T20:56:39.067Z,422.23
2022-11-26T20:59:09.741Z,432.48
2022-11-26T21:01:38.468Z,429.05
2022-11-26T21:04:08.217Z,403.33
2022-11-26T21:06:37.147Z,400.90
2022-11-26T21:09:07.905Z,394.80
2022-11-26T21:11:36.535Z,430.42
2022-11-26T21:14:08.489Z,406.70
2022-11-26T21:16:39.278Z,404.08
2022-11-26T21:19:07.661Z,401.33
2022-11-26T21:21:36.102Z,413.40
2022-11-26T21:24:06.190Z,380.52
2022-11-26T21:26:34.774Z,410.40
2022-11-26T21:29:03.779Z,408.60
2022-11-26T21:31:33.110Z,428.70
2022-11-26T21:34:03.933Z,409.65
2022-11-26T21:36:34.398Z,376.02
2022-11-26T21:39:03.179Z,397.48
2022-11-26T21:41:33.494Z,390.42
2022-11-26T21:44:03.859Z,384.08
2022-11-26T21:46:37.798Z,386.00
2022-11-26T21:49:06.877Z,402.42
2022-11-26T21:51:35.425Z,408.60
2022-11-26T21:54:03.912Z,386.95
2022-11-26T21:56:34.083Z,350.63
2022-11-26T21:59:03.022Z,406.38
2022-11-26T22:01:32.715Z,401.85
2022-11-26T22:04:02.902Z,400.52
2022-11-26T22:06:31.454Z,379.75
2022-11-26T22:09:00.155Z,397.02
2022-11-26T22:11:29.818Z,387.83
2022-11-26T22:13:59.854Z,368.25
2022-11-26T22:16:29.550Z,392.20
2022-11-26T22:18:58.395Z,368.92
2022-11-26T22:21:29.194Z,398.52
2022-11-26T22:23:57.916Z,355.85
2022-11-26T22:26:26.605Z,391.90
2022-11-26T22:28:55.515Z,389.73
2022-11-26T22:31:27.210Z,390.40
2022-11-26T22:33:56.880Z,413.05
2022-11-26T22:36:25.472Z,399.70
2022-11-26T22:38:53.898Z,443.95
2022-11-26T22:41:22.908Z,384.80
2022-11-26T22:43:51.441Z,389.35
2022-11-26T22:46:21.298Z,402.85
2022-11-26T22:48:52.683Z,436.20
2022-11-26T22:51:21.644Z,405.38
2022-11-26T22:53:51.808Z,368.67
2022-11-26T22:56:20.544Z,363.20
2022-11-26T22:58:49.604Z,356.98
2022-11-26T23:01:21.194Z,340.63
2022-11-26T23:03:51.355Z,364.45
2022-11-26T23:06:21.058Z,348.02
2022-11-26T23:08:50.031Z,364.10
2022-11-26T23:11:20.358Z,363.50
2022-11-26T23:13:50.098Z,359.75
2022-11-26T23:16:19.706Z,349.83
2022-11-26T23:18:48.328Z,359.13
2022-11-26T23:21:20.164Z,360.77
2022-11-26T23:23:48.717Z,327.85
2022-11-26T23:26:24.893Z,328.10
2022-11-26T23:28:55.358Z,295.30
2022-11-26T23:31:25.583Z,344.85
2022-11-26T23:33:54.126Z,329.45
2022-11-26T23:36:24.154Z,338.27
2022-11-26T23:38:52.706Z,351.27
2022-11-26T23:41:21.103Z,345.20
2022-11-26T23:43:49.960Z,373.98
2022-11-26T23:46:19.774Z,393.80
2022-11-26T23:48:48.684Z,372.75
2022-11-26T23:51:19.198Z,353.15
2022-11-26T23:53:50.312Z,385.83
2022-11-26T23:56:20.875Z,361.08
2022-11-26T23:58:50.464Z,378.60
